Time;durP1;ratioP1;P1;durP2;ratioP2;P2;SDS_P1;SDS_P2;PMS_P1;PMS_P2;Temp;Humidity;BMP_temperature;BMP_pressure;BME280_temperature;BME280_humidity;BME280_pressure;Samples;Min_cycle;Max_cycle;Signal;HPM_P1;HPM_P2
2022/06/14 00:01:29;;;;;;;5.60;3.92;;;;;;;;;;1713994;81;21016;-68
2022/06/14 00:03:57;;;;;;;5.65;4.42;;;;;;;;;;1783022;80;21083;-68
2022/06/14 00:06:24;;;;;;;5.67;3.77;;;;;;;;;;1734916;80;21122;-68
2022/06/14 00:08:51;;;;;;;6.33;4.00;;;;;;;;;;1730501;82;21055;-68
2022/06/14 00:11:19;;;;;;;6.05;3.85;;;;;;;;;;1739861;81;21011;-68
2022/06/14 00:13:45;;;;;;;6.62;3.58;;;;;;;;;;1756993;81;21038;-68
2022/06/14 00:16:12;;;;;;;5.55;4.00;;;;;;;;;;1760914;81;20991;-68
2022/06/14 00:18:40;;;;;;;6.72;4.22;;;;;;;;;;1747379;81;21051;-69
2022/06/14 00:21:06;;;;;;;8.00;4.30;;;;;;;;;;1745791;81;20968;-69
2022/06/14 00:23:32;;;;;;;6.12;4.33;;;;;;;;;;1728757;81;21059;-69
2022/06/14 00:25:58;;;;;;;6.85;4.90;;;;;;;;;;1754634;81;21055;-69
2022/06/14 00:28:25;;;;;;;7.90;5.20;;;;;;;;;;1754652;81;21035;-69
2022/06/14 00:30:53;;;;;;;6.42;3.87;;;;;;;;;;1748034;81;21055;-69
2022/06/14 00:33:19;;;;;;;6.80;3.83;;;;;;;;;;1736357;81;21047;-69
2022/06/14 00:35:45;;;;;;;5.60;3.90;;;;;;;;;;1742697;81;21011;-68
2022/06/14 00:38:12;;;;;;;4.25;3.62;;;;;;;;;;1757356;81;21441;-69
2022/06/14 00:40:39;;;;;;;6.75;3.80;;;;;;;;;;1757497;81;21031;-69
2022/06/14 00:43:06;;;;;;;5.90;3.67;;;;;;;;;;1756580;81;21091;-68
2022/06/14 00:45:37;;;;;;;6.70;3.98;;;;;;;;;;1762832;81;21012;-68
2022/06/14 00:48:08;;;;;;;5.25;3.83;;;;;;;;;;1762315;81;21550;-68
2022/06/14 00:50:36;;;;;;;6.05;4.10;;;;;;;;;;1756283;81;20968;-69
2022/06/14 00:53:09;;;;;;;5.25;3.80;;;;;;;;;;1742171;81;21561;-69
2022/06/14 00:55:36;;;;;;;4.42;3.75;;;;;;;;;;1752727;81;21064;-68
2022/06/14 00:58:04;;;;;;;4.50;4.08;;;;;;;;;;1764867;81;21068;-68
2022/06/14 01:00:31;;;;;;;5.03;3.87;;;;;;;;;;1756811;81;20999;-68
2022/06/14 01:08:24;;;;;;;6.70;4.65;;;;;;;;;;1682220;85;21033;-68
2022/06/14 01:10:51;;;;;;;4.55;3.80;;;;;;;;;;1685077;85;21390;-68
2022/06/14 01:13:17;;;;;;;4.92;4.12;;;;;;;;;;1685929;85;21028;-68
2022/06/14 01:15:44;;;;;;;4.53;3.92;;;;;;;;;;1691194;83;21535;-69
2022/06/14 01:18:12;;;;;;;5.28;3.70;;;;;;;;;;1661112;86;21036;-69
2022/06/14 01:20:40;;;;;;;6.72;4.37;;;;;;;;;;1658511;86;21013;-68
2022/06/14 01:23:08;;;;;;;5.72;4.72;;;;;;;;;;1687809;85;21025;-68
2022/06/14 01:25:41;;;;;;;5.20;3.67;;;;;;;;;;1691924;83;21045;-68
2022/06/14 01:28:07;;;;;;;6.03;4.10;;;;;;;;;;1688968;85;21024;-69
2022/06/14 01:30:34;;;;;;;6.42;3.85;;;;;;;;;;1678737;85;21014;-68
2022/06/14 01:33:08;;;;;;;5.90;4.37;;;;;;;;;;1676433;85;21085;-68
2022/06/14 01:35:39;;;;;;;4.33;3.92;;;;;;;;;;1674544;83;21012;-68
2022/06/14 01:38:04;;;;;;;4.60;4.10;;;;;;;;;;1671060;85;21084;-68
2022/06/14 01:40:39;;;;;;;5.70;4.47;;;;;;;;;;1687426;85;21080;-69
2022/06/14 01:43:09;;;;;;;5.10;4.00;;;;;;;;;;1687589;85;21026;-69
2022/06/14 01:45:37;;;;;;;4.58;3.90;;;;;;;;;;1682739;83;21626;-68
2022/06/14 01:48:05;;;;;;;5.20;3.65;;;;;;;;;;1661265;85;21556;-69
2022/06/14 01:53:37;;;;;;;5.10;4.00;;;;;;;;;;1686247;85;21017;-67
2022/06/14 01:56:05;;;;;;;4.45;3.80;;;;;;;;;;1673614;85;21540;-67
2022/06/14 01:58:45;;;;;;;6.75;3.85;;;;;;;;;;1665123;85;21044;-67
2022/06/14 02:01:31;;;;;;;5.33;3.65;;;;;;;;;;1685739;85;21091;-67
2022/06/14 02:06:52;;;;;;;4.30;3.90;;;;;;;;;;1695611;83;21017;-69
2022/06/14 02:09:23;;;;;;;4.72;4.15;;;;;;;;;;1663123;83;21037;-69
2022/06/14 02:11:49;;;;;;;4.80;3.58;;;;;;;;;;1698038;83;21056;-69
2022/06/14 02:14:22;;;;;;;4.28;3.47;;;;;;;;;;1714245;83;21527;-69
2022/06/14 02:16:50;;;;;;;4.30;3.90;;;;;;;;;;1691811;85;22125;-67
2022/06/14 02:19:20;;;;;;;6.60;4.00;;;;;;;;;;1711594;83;20993;-67
2022/06/14 02:21:48;;;;;;;3.70;3.20;;;;;;;;;;1692375;83;21104;-67
2022/06/14 02:24:16;;;;;;;6.67;5.50;;;;;;;;;;1689443;84;21048;-67
2022/06/14 02:26:59;;;;;;;5.83;3.92;;;;;;;;;;1691965;84;21048;-67
2022/06/14 02:29:27;;;;;;;6.78;4.03;;;;;;;;;;1710756;83;21017;-66
2022/06/14 02:31:58;;;;;;;4.70;3.80;;;;;;;;;;1709038;83;21091;-66
2022/06/14 02:34:31;;;;;;;5.95;4.12;;;;;;;;;;1715113;83;21627;-68
2022/06/14 02:36:57;;;;;;;;;;;;;;;;;;1704568;83;21543;-68
2022/06/14 02:39:25;;;;;;;4.20;3.80;;;;;;;;;;1697984;83;20437;-68
2022/06/14 02:41:54;;;;;;;4.25;3.85;;;;;;;;;;1698740;83;21040;-66
2022/06/14 02:44:31;;;;;;;4.45;3.60;;;;;;;;;;1688715;82;21033;-67
2022/06/14 02:47:11;;;;;;;4.50;3.30;;;;;;;;;;1703165;83;21096;-67
2022/06/14 02:49:39;;;;;;;4.22;3.42;;;;;;;;;;1705025;82;21083;-67
2022/06/14 02:52:10;;;;;;;4.75;3.90;;;;;;;;;;1721825;83;21064;-67
2022/06/14 02:54:42;;;;;;;5.33;3.95;;;;;;;;;;1717710;83;21111;-67
2022/06/14 02:57:09;;;;;;;4.67;3.72;;;;;;;;;;1710229;83;21080;-67
2022/06/14 02:59:40;;;;;;;3.75;3.17;;;;;;;;;;1703657;83;21088;-67
2022/06/14 03:02:08;;;;;;;5.67;3.80;;;;;;;;;;1706299;83;21028;-67
2022/06/14 03:04:36;;;;;;;9.58;4.30;;;;;;;;;;1704769;83;21205;-67
2022/06/14 03:07:05;;;;;;;5.72;3.42;;;;;;;;;;1713271;82;21111;-67
2022/06/14 03:09:31;;;;;;;4.58;3.67;;;;;;;;;;1722957;83;21476;-67
2022/06/14 03:12:02;;;;;;;4.85;3.92;;;;;;;;;;1701810;82;21111;-67
2022/06/14 03:14:49;;;;;;;4.35;3.33;;;;;;;;;;1722084;83;21315;-67
2022/06/14 03:17:17;;;;;;;5.05;3.20;;;;;;;;;;1710976;83;21123;-67
2022/06/14 03:19:48;;;;;;;44.70;7.40;;;;;;;;;;1720138;83;21020;-67
2022/06/14 03:22:22;;;;;;;7.60;4.25;;;;;;;;;;1710536;82;21009;-67
2022/06/14 03:24:56;;;;;;;4.20;3.40;;;;;;;;;;1696924;84;21600;-67
2022/06/14 03:27:29;;;;;;;4.78;3.60;;;;;;;;;;1700301;83;21000;-67
2022/06/14 03:30:16;;;;;;;4.28;3.85;;;;;;;;;;1710247;83;21076;-67
2022/06/14 03:33:00;;;;;;;10.78;4.78;;;;;;;;;;1710477;83;21041;-67
2022/06/14 03:35:29;;;;;;;9.80;5.47;;;;;;;;;;1725879;82;21041;-68
2022/06/14 03:37:56;;;;;;;7.20;5.10;;;;;;;;;;1710871;83;21067;-67
2022/06/14 03:40:22;;;;;;;7.85;4.80;;;;;;;;;;1697598;83;21532;-67
2022/06/14 03:42:49;;;;;;;6.92;5.15;;;;;;;;;;1695704;84;21532;-67
2022/06/14 03:45:16;;;;;;;6.62;5.17;;;;;;;;;;1713519;83;21060;-67
2022/06/14 03:47:42;;;;;;;6.85;4.90;;;;;;;;;;1704999;83;21052;-68
2022/06/14 03:50:09;;;;;;;6.22;4.80;;;;;;;;;;1720529;83;21076;-67
2022/06/14 03:52:53;;;;;;;7.25;5.67;;;;;;;;;;1718677;82;21040;-68
2022/06/14 03:55:39;;;;;;;6.55;5.85;;;;;;;;;;1705010;82;21567;-68
2022/06/14 03:58:07;;;;;;;9.05;5.33;;;;;;;;;;1633910;87;21135;-67
2022/06/14 04:00:35;;;;;;;5.95;5.22;;;;;;;;;;1643836;87;21035;-67
2022/06/14 04:03:02;;;;;;;5.75;5.05;;;;;;;;;;1664810;83;21669;-68
2022/06/14 04:05:30;;;;;;;8.20;5.75;;;;;;;;;;1696796;83;21073;-68
2022/06/14 04:07:58;;;;;;;6.47;4.87;;;;;;;;;;1692176;83;21348;-67
2022/06/14 04:10:35;;;;;;;7.80;5.65;;;;;;;;;;1698563;82;21040;-67
2022/06/14 04:13:08;;;;;;;8.30;5.70;;;;;;;;;;1711088;83;21059;-68
2022/06/14 04:15:46;;;;;;;7.87;5.08;;;;;;;;;;1705914;82;21064;-68
2022/06/14 04:18:35;;;;;;;6.75;4.97;;;;;;;;;;1707063;83;21040;-67
2022/06/14 04:21:14;;;;;;;6.80;5.58;;;;;;;;;;1702945;83;20993;-68
2022/06/14 04:23:44;;;;;;;7.03;5.12;;;;;;;;;;1724168;83;21100;-66
2022/06/14 04:26:18;;;;;;;10.30;5.75;;;;;;;;;;1715024;82;21032;-67
2022/06/14 04:28:46;;;;;;;7.03;5.85;;;;;;;;;;1703213;83;21017;-67
2022/06/14 04:31:16;;;;;;;7.42;4.95;;;;;;;;;;1746607;82;21080;-69
2022/06/14 04:33:53;;;;;;;8.40;5.53;;;;;;;;;;1715392;83;21028;-67
2022/06/14 04:36:24;;;;;;;7.20;5.30;;;;;;;;;;1707192;83;21603;-70
2022/06/14 04:38:52;;;;;;;10.40;5.03;;;;;;;;;;1699484;83;21484;-68
2022/06/14 04:41:20;;;;;;;5.90;4.20;;;;;;;;;;1703847;82;21040;-68
2022/06/14 04:43:53;;;;;;;9.05;4.45;;;;;;;;;;1701440;83;21032;-68
2022/06/14 04:46:21;;;;;;;8.40;3.80;;;;;;;;;;1720608;83;21084;-68
2022/06/14 04:49:06;;;;;;;5.25;3.83;;;;;;;;;;1720953;83;21037;-69
2022/06/14 04:51:37;;;;;;;6.22;3.65;;;;;;;;;;1697239;83;21079;-68
2022/06/14 04:54:08;;;;;;;5.17;3.60;;;;;;;;;;1709103;82;21559;-68
2022/06/14 04:56:56;;;;;;;5.63;3.27;;;;;;;;;;1700343;82;21016;-68
2022/06/14 04:59:24;;;;;;;3.95;3.35;;;;;;;;;;1710663;83;21005;-67
2022/06/14 05:01:51;;;;;;;6.28;3.72;;;;;;;;;;1722688;82;21570;-67
2022/06/14 05:04:19;;;;;;;7.33;3.40;;;;;;;;;;1703223;83;21167;-67
2022/06/14 05:06:47;;;;;;;9.58;3.75;;;;;;;;;;1702522;83;21077;-68
2022/06/14 05:09:15;;;;;;;4.15;3.12;;;;;;;;;;1718842;83;21041;-68
2022/06/14 05:11:43;;;;;;;6.92;3.17;;;;;;;;;;1718681;82;21041;-68
2022/06/14 05:14:12;;;;;;;3.85;2.90;;;;;;;;;;1718795;83;21065;-68
2022/06/14 05:16:50;;;;;;;6.47;2.98;;;;;;;;;;1700458;84;21074;-68
2022/06/14 05:19:20;;;;;;;6.55;3.00;;;;;;;;;;1690217;85;21020;-66
2022/06/14 05:21:57;;;;;;;5.12;2.92;;;;;;;;;;1702864;83;21099;-68
2022/06/14 05:24:22;;;;;;;3.77;2.70;;;;;;;;;;1697791;83;21063;-69
2022/06/14 05:27:07;;;;;;;5.65;2.90;;;;;;;;;;1682021;85;22064;-68
2022/06/14 05:29:36;;;;;;;4.78;2.90;;;;;;;;;;1715649;83;21072;-68
2022/06/14 05:32:14;;;;;;;5.53;2.77;;;;;;;;;;1718836;83;21076;-68
2022/06/14 05:34:46;;;;;;;3.40;2.85;;;;;;;;;;1717727;83;21061;-68
2022/06/14 05:37:18;;;;;;;3.55;2.70;;;;;;;;;;1718832;83;21033;-68
2022/06/14 05:39:46;;;;;;;4.03;3.12;;;;;;;;;;1714744;83;21064;-69
2022/06/14 05:42:17;;;;;;;6.42;2.77;;;;;;;;;;1702504;83;21045;-69
2022/06/14 05:44:44;;;;;;;3.00;2.67;;;;;;;;;;1709073;82;21064;-70
2022/06/14 05:47:13;;;;;;;4.92;2.77;;;;;;;;;;1690412;85;22110;-69
2022/06/14 05:49:41;;;;;;;3.75;3.00;;;;;;;;;;1714170;83;21528;-69
2022/06/14 05:52:15;;;;;;;5.08;2.50;;;;;;;;;;1718968;83;21084;-69
2022/06/14 05:54:52;;;;;;;8.30;5.45;;;;;;;;;;1703693;83;21072;-69
2022/06/14 05:57:20;;;;;;;5.42;3.10;;;;;;;;;;1698274;82;21080;-69
2022/06/14 05:59:50;;;;;;;2.60;2.40;;;;;;;;;;1702974;83;21044;-68
2022/06/14 06:02:21;;;;;;;6.65;2.35;;;;;;;;;;1705377;82;21029;-68
2022/06/14 06:04:52;;;;;;;5.97;2.42;;;;;;;;;;1701378;82;21037;-68
2022/06/14 06:07:20;;;;;;;6.75;2.40;;;;;;;;;;1714342;83;21020;-67
2022/06/14 06:09:51;;;;;;;2.40;1.87;;;;;;;;;;1707420;83;20989;-67
2022/06/14 06:12:18;;;;;;;3.35;1.95;;;;;;;;;;1710416;82;21076;-67
2022/06/14 06:14:53;;;;;;;3.33;2.20;;;;;;;;;;1712551;82;21642;-66
2022/06/14 06:17:24;;;;;;;2.98;2.00;;;;;;;;;;1726856;82;21099;-68
2022/06/14 06:19:52;;;;;;;2.40;2.20;;;;;;;;;;1719946;82;20993;-68
2022/06/14 06:22:21;;;;;;;3.00;1.90;;;;;;;;;;1730745;82;21032;-67
2022/06/14 06:24:50;;;;;;;2.83;2.10;;;;;;;;;;1717277;82;21088;-67
2022/06/14 06:27:16;;;;;;;3.75;2.20;;;;;;;;;;1718715;82;21097;-68
2022/06/14 06:29:43;;;;;;;3.92;2.35;;;;;;;;;;1740751;82;21009;-68
2022/06/14 06:32:10;;;;;;;3.65;2.10;;;;;;;;;;1722938;82;21054;-68
2022/06/14 06:34:36;;;;;;;3.20;2.10;;;;;;;;;;1734444;82;21483;-68
2022/06/14 06:37:10;;;;;;;2.52;2.00;;;;;;;;;;1725241;82;21020;-68
2022/06/14 06:39:57;;;;;;;2.75;2.05;;;;;;;;;;1690468;82;21017;-68
2022/06/14 06:42:45;;;;;;;3.50;2.60;;;;;;;;;;1741783;82;21072;-67
2022/06/14 06:45:13;;;;;;;3.35;2.27;;;;;;;;;;1730624;82;21003;-67
2022/06/14 06:47:41;;;;;;;2.80;2.25;;;;;;;;;;1717130;82;21082;-68
2022/06/14 06:50:09;;;;;;;3.87;2.22;;;;;;;;;;1719002;82;21532;-67
2022/06/14 06:52:43;;;;;;;3.25;2.05;;;;;;;;;;1726699;82;21584;-67
2022/06/14 06:55:11;;;;;;;3.52;2.37;;;;;;;;;;1722590;82;21045;-67
2022/06/14 06:57:37;;;;;;;3.47;2.50;;;;;;;;;;1729439;82;21501;-68
2022/06/14 07:01:34;;;;;;;3.08;2.42;;;;;;;;;;1793810;78;23322;-66
2022/06/14 07:04:11;;;;;;;2.95;2.30;;;;;;;;;;1743110;80;21009;-67
2022/06/14 07:06:39;;;;;;;2.45;2.12;;;;;;;;;;1710854;82;20993;-67
2022/06/14 07:09:16;;;;;;;4.30;2.62;;;;;;;;;;1741754;80;21603;-68
2022/06/14 07:11:47;;;;;;;3.75;2.75;;;;;;;;;;1754487;80;20969;-67
2022/06/14 07:14:19;;;;;;;3.42;2.45;;;;;;;;;;1738832;82;21053;-66
2022/06/14 07:16:53;;;;;;;3.52;2.37;;;;;;;;;;1732124;82;21623;-66
2022/06/14 07:19:24;;;;;;;2.75;2.40;;;;;;;;;;1744442;82;21033;-66
2022/06/14 07:21:53;;;;;;;4.35;2.60;;;;;;;;;;1734215;82;20972;-66
2022/06/14 07:24:21;;;;;;;3.20;2.60;;;;;;;;;;1736646;80;21516;-67
2022/06/14 07:26:48;;;;;;;3.65;2.70;;;;;;;;;;1738172;80;21131;-67
2022/06/14 07:29:16;;;;;;;3.58;2.70;;;;;;;;;;1727969;80;20977;-66
2022/06/14 07:31:44;;;;;;;4.80;2.65;;;;;;;;;;1734605;82;20989;-67
2022/06/14 07:34:10;;;;;;;4.33;2.60;;;;;;;;;;1738442;80;21028;-66
2022/06/14 07:36:39;;;;;;;3.47;2.75;;;;;;;;;;1745883;82;21075;-66
2022/06/14 07:39:10;;;;;;;3.47;2.70;;;;;;;;;;1731983;82;21040;-67
2022/06/14 07:41:45;;;;;;;3.87;2.33;;;;;;;;;;1710079;82;21091;-67
2022/06/14 07:44:22;;;;;;;2.67;2.30;;;;;;;;;;1726707;82;21060;-67
2022/06/14 07:46:57;;;;;;;2.72;2.27;;;;;;;;;;1728792;82;21491;-66
2022/06/14 07:49:27;;;;;;;4.67;2.42;;;;;;;;;;1742929;82;21044;-67
2022/06/14 07:51:56;;;;;;;4.72;2.20;;;;;;;;;;1740891;82;21017;-66
2022/06/14 07:54:32;;;;;;;2.62;1.90;;;;;;;;;;1758157;80;21476;-66
2022/06/14 07:57:03;;;;;;;2.20;2.00;;;;;;;;;;1747450;82;21032;-67
2022/06/14 07:59:31;;;;;;;2.15;1.70;;;;;;;;;;1739268;82;21009;-67
2022/06/14 08:02:05;;;;;;;2.87;1.90;;;;;;;;;;1739895;82;21560;-68
2022/06/14 08:04:34;;;;;;;2.75;1.85;;;;;;;;;;1682972;82;21052;-67
2022/06/14 08:07:01;;;;;;;1.95;1.67;;;;;;;;;;1724248;82;21008;-68
2022/06/14 08:09:29;;;;;;;2.60;1.85;;;;;;;;;;1722566;83;21103;-68
2022/06/14 08:11:58;;;;;;;2.72;1.80;;;;;;;;;;1732138;82;21097;-68
2022/06/14 08:14:26;;;;;;;2.87;1.90;;;;;;;;;;1735387;82;21505;-69
2022/06/14 08:16:53;;;;;;;2.08;1.80;;;;;;;;;;1730241;82;21096;-68
2022/06/14 08:19:21;;;;;;;2.02;1.82;;;;;;;;;;1736419;82;21056;-68
2022/06/14 08:21:49;;;;;;;2.87;1.80;;;;;;;;;;1719718;81;21116;-68
2022/06/14 08:24:21;;;;;;;2.60;1.80;;;;;;;;;;1731689;81;21013;-68
2022/06/14 08:27:06;;;;;;;1.90;1.70;;;;;;;;;;1728077;82;21091;-67
2022/06/14 08:29:46;;;;;;;6.15;2.05;;;;;;;;;;1723873;82;20981;-68
2022/06/14 08:32:16;;;;;;;3.27;1.90;;;;;;;;;;1714517;82;21010;-69
2022/06/14 08:34:45;;;;;;;2.37;1.70;;;;;;;;;;1725016;82;20994;-67
2022/06/14 08:37:16;;;;;;;1.92;1.70;;;;;;;;;;1739242;82;21378;-66
2022/06/14 08:39:44;;;;;;;1.80;1.70;;;;;;;;;;1720049;82;21021;-67
2022/06/14 08:42:15;;;;;;;3.65;1.87;;;;;;;;;;1738666;82;21065;-67
2022/06/14 08:44:43;;;;;;;2.30;1.92;;;;;;;;;;1731576;82;21195;-67
2022/06/14 08:47:11;;;;;;;2.42;2.00;;;;;;;;;;1734685;82;21655;-66
2022/06/14 08:49:39;;;;;;;2.17;1.70;;;;;;;;;;1728186;82;21072;-66
2022/06/14 08:52:12;;;;;;;2.50;1.77;;;;;;;;;;1730854;82;21354;-66
2022/06/14 08:55:00;;;;;;;2.85;1.70;;;;;;;;;;1716980;82;21077;-69
2022/06/14 08:57:26;;;;;;;2.70;2.20;;;;;;;;;;1721995;82;21029;-70
2022/06/14 08:59:54;;;;;;;2.25;1.95;;;;;;;;;;1724503;82;21029;-70
2022/06/14 09:02:39;;;;;;;3.25;1.87;;;;;;;;;;1730243;82;21088;-70
2022/06/14 09:05:10;;;;;;;3.00;1.70;;;;;;;;;;1722960;82;21061;-67
2022/06/14 09:07:55;;;;;;;3.22;2.00;;;;;;;;;;1728122;82;21505;-74
2022/06/14 09:10:42;;;;;;;3.00;1.80;;;;;;;;;;1732050;82;21009;-67
2022/06/14 09:13:13;;;;;;;2.72;2.00;;;;;;;;;;1727805;82;22129;-68
2022/06/14 09:15:44;;;;;;;2.67;2.10;;;;;;;;;;1731437;82;21145;-67
2022/06/14 09:18:18;;;;;;;3.17;2.12;;;;;;;;;;1722149;82;21009;-70
2022/06/14 09:21:02;;;;;;;3.75;1.95;;;;;;;;;;1719377;82;21501;-68
2022/06/14 09:23:33;;;;;;;2.42;2.00;;;;;;;;;;1739656;82;21041;-69
2022/06/14 09:26:15;;;;;;;3.12;2.00;;;;;;;;;;1728054;82;21590;-68
2022/06/14 09:28:55;;;;;;;2.62;1.90;;;;;;;;;;1720944;82;21006;-65
2022/06/14 09:31:35;;;;;;;2.42;1.87;;;;;;;;;;1737663;82;21053;-66
2022/06/14 09:34:20;;;;;;;3.72;2.00;;;;;;;;;;1714614;82;21113;-66
2022/06/14 09:37:03;;;;;;;2.47;1.98;;;;;;;;;;1721633;82;21001;-66
2022/06/14 09:39:46;;;;;;;3.52;2.00;;;;;;;;;;1728030;81;21089;-66
2022/06/14 09:42:27;;;;;;;3.50;1.90;;;;;;;;;;1711554;82;21084;-66
2022/06/14 09:44:57;;;;;;;3.75;2.05;;;;;;;;;;1734608;82;21056;-67
2022/06/14 09:47:42;;;;;;;1.98;1.80;;;;;;;;;;1720490;82;21053;-66
2022/06/14 09:50:26;;;;;;;2.10;1.85;;;;;;;;;;1730477;82;21057;-66
2022/06/14 09:53:04;;;;;;;2.20;1.80;;;;;;;;;;1711882;82;21384;-68
2022/06/14 09:55:35;;;;;;;2.62;2.00;;;;;;;;;;1734927;82;21052;-66
2022/06/14 09:58:03;;;;;;;2.17;1.80;;;;;;;;;;1732433;82;20989;-65
2022/06/14 10:00:45;;;;;;;1.92;1.80;;;;;;;;;;1734477;81;21042;-67
2022/06/14 10:03:30;;;;;;;2.25;1.80;;;;;;;;;;1729203;82;21085;-67
2022/06/14 10:06:01;;;;;;;2.77;2.10;;;;;;;;;;1725802;82;21034;-66
2022/06/14 10:08:33;;;;;;;2.12;1.90;;;;;;;;;;1711737;82;21029;-66
2022/06/14 10:11:12;;;;;;;2.67;1.85;;;;;;;;;;1711267;82;21505;-67
2022/06/14 10:13:44;;;;;;;2.37;2.17;;;;;;;;;;1724180;82;21561;-66
2022/06/14 10:16:28;;;;;;;2.58;1.95;;;;;;;;;;1733080;82;21027;-68
2022/06/14 10:19:12;;;;;;;2.45;2.00;;;;;;;;;;1738588;82;21057;-66
2022/06/14 10:21:42;;;;;;;2.33;2.10;;;;;;;;;;1739649;82;21029;-66
2022/06/14 10:24:11;;;;;;;2.25;1.82;;;;;;;;;;1736086;82;21580;-66
2022/06/14 10:29:47;;;;;;;4.25;2.02;;;;;;;;;;1726134;82;21544;-67
2022/06/14 10:32:31;;;;;;;2.70;2.00;;;;;;;;;;1710545;82;21080;-69
2022/06/14 10:35:03;;;;;;;2.20;1.70;;;;;;;;;;1682205;84;21001;-69
2022/06/14 10:37:40;;;;;;;3.25;2.10;;;;;;;;;;1671746;84;21068;-67
2022/06/14 10:40:14;;;;;;;2.25;1.92;;;;;;;;;;1722554;82;21021;-68
2022/06/14 10:42:42;;;;;;;3.27;2.22;;;;;;;;;;1708616;82;20993;-67
2022/06/14 10:45:16;;;;;;;2.30;2.02;;;;;;;;;;1711173;82;21033;-67
2022/06/14 10:48:04;;;;;;;4.40;2.30;;;;;;;;;;1727950;82;20966;-67
2022/06/14 10:50:38;;;;;;;3.05;2.27;;;;;;;;;;1718515;82;21049;-68
2022/06/14 10:53:09;;;;;;;3.75;2.20;;;;;;;;;;1737705;82;22016;-68
2022/06/14 10:55:47;;;;;;;3.77;2.10;;;;;;;;;;1725635;82;21055;-67
2022/06/14 10:58:15;;;;;;;2.92;2.25;;;;;;;;;;1731622;82;21008;-68
2022/06/14 11:00:44;;;;;;;2.87;2.52;;;;;;;;;;1740625;81;21107;-68
2022/06/14 11:03:27;;;;;;;3.98;2.50;;;;;;;;;;1736763;82;21088;-67
2022/06/14 11:05:56;;;;;;;3.67;2.58;;;;;;;;;;1728984;82;21068;-67
2022/06/14 11:08:33;;;;;;;3.75;2.37;;;;;;;;;;1729119;82;21068;-69
2022/06/14 11:11:08;;;;;;;2.85;2.33;;;;;;;;;;1742907;82;21041;-68
2022/06/14 11:13:39;;;;;;;3.80;2.33;;;;;;;;;;1745133;82;21084;-69
2022/06/14 11:16:11;;;;;;;2.60;2.33;;;;;;;;;;1736028;82;21487;-68
2022/06/14 11:18:42;;;;;;;3.95;2.45;;;;;;;;;;1718941;82;21575;-67
2022/06/14 11:21:23;;;;;;;3.08;2.45;;;;;;;;;;1741421;82;21092;-67
2022/06/14 11:23:56;;;;;;;2.65;2.10;;;;;;;;;;1670609;84;21074;-65
2022/06/14 11:26:24;;;;;;;4.28;2.37;;;;;;;;;;1743767;82;21548;-65
2022/06/14 11:28:53;;;;;;;3.50;2.20;;;;;;;;;;1735766;82;22113;-66
2022/06/14 11:31:32;;;;;;;3.08;2.20;;;;;;;;;;1730714;80;21072;-66
2022/06/14 11:34:07;;;;;;;2.87;2.25;;;;;;;;;;1727974;82;21019;-67
2022/06/14 11:36:52;;;;;;;5.12;2.40;;;;;;;;;;1649503;86;21051;-67
2022/06/14 11:39:39;;;;;;;2.90;2.30;;;;;;;;;;1737846;82;21049;-65
2022/06/14 11:42:07;;;;;;;3.98;2.52;;;;;;;;;;1737598;82;21044;-66
2022/06/14 11:44:38;;;;;;;2.92;2.20;;;;;;;;;;1697933;82;21029;-66
2022/06/14 11:47:09;;;;;;;6.90;2.50;;;;;;;;;;1724121;82;20993;-66
2022/06/14 11:49:37;;;;;;;2.95;2.20;;;;;;;;;;1729375;82;21638;-66
2022/06/14 11:52:08;;;;;;;3.47;2.60;;;;;;;;;;1727498;82;21001;-67
2022/06/14 11:54:40;;;;;;;5.22;2.95;;;;;;;;;;1716344;82;21598;-66
2022/06/14 11:57:13;;;;;;;3.52;2.62;;;;;;;;;;1730445;82;21023;-66
2022/06/14 12:00:00;;;;;;;3.10;2.37;;;;;;;;;;1734898;82;21086;-66
2022/06/14 12:02:29;;;;;;;2.92;2.30;;;;;;;;;;1734794;82;21017;-66
2022/06/14 12:05:02;;;;;;;4.90;2.50;;;;;;;;;;1736799;82;21003;-66
2022/06/14 12:07:34;;;;;;;5.83;2.92;;;;;;;;;;1739583;82;21107;-66
2022/06/14 12:10:20;;;;;;;3.25;2.20;;;;;;;;;;1737395;82;21521;-66
2022/06/14 12:12:54;;;;;;;2.92;2.40;;;;;;;;;;1734451;82;21084;-66
2022/06/14 12:15:37;;;;;;;3.10;2.37;;;;;;;;;;1729799;82;21026;-66
2022/06/14 12:18:03;;;;;;;4.12;2.70;;;;;;;;;;1725141;82;21583;-66
2022/06/14 12:20:31;;;;;;;5.22;2.47;;;;;;;;;;1725381;82;21092;-66
2022/06/14 12:22:59;;;;;;;3.25;2.40;;;;;;;;;;1723428;82;21005;-67
2022/06/14 12:28:17;;;;;;;3.72;2.42;;;;;;;;;;1718907;82;21062;-66
2022/06/14 12:30:43;;;;;;;3.25;2.33;;;;;;;;;;1722365;82;21618;-66
2022/06/14 12:33:13;;;;;;;5.40;2.65;;;;;;;;;;1733579;82;21548;-66
2022/06/14 12:35:41;;;;;;;3.98;2.47;;;;;;;;;;1718266;82;21548;-66
2022/06/14 12:38:09;;;;;;;4.20;2.50;;;;;;;;;;1714414;82;21052;-66
2022/06/14 12:40:50;;;;;;;3.52;2.10;;;;;;;;;;1699836;82;21084;-65
2022/06/14 12:43:17;;;;;;;3.08;2.40;;;;;;;;;;1718365;81;21025;-67
2022/06/14 12:45:48;;;;;;;3.62;2.20;;;;;;;;;;1652655;86;21044;-68
2022/06/14 12:48:19;;;;;;;3.77;2.50;;;;;;;;;;1663085;86;21639;-68
2022/06/14 12:50:49;;;;;;;5.03;2.60;;;;;;;;;;1686368;85;21525;-70
2022/06/14 12:53:30;;;;;;;2.92;2.30;;;;;;;;;;1670918;85;21012;-68
2022/06/14 12:55:58;;;;;;;3.22;2.45;;;;;;;;;;1694324;84;21028;-69
2022/06/14 12:58:32;;;;;;;4.55;2.40;;;;;;;;;;1696332;82;21024;-69
2022/06/14 13:01:03;;;;;;;4.08;2.42;;;;;;;;;;1720177;82;21543;-69
2022/06/14 13:03:31;;;;;;;4.92;2.45;;;;;;;;;;1696871;82;21092;-69
2022/06/14 13:06:02;;;;;;;3.60;2.62;;;;;;;;;;1743971;82;21114;-70
2022/06/14 13:08:31;;;;;;;5.53;2.70;;;;;;;;;;1717755;82;20972;-68
2022/06/14 13:11:05;;;;;;;3.95;2.77;;;;;;;;;;1712141;82;21574;-66
2022/06/14 13:13:39;;;;;;;3.60;2.60;;;;;;;;;;1726555;82;21088;-66
2022/06/14 13:16:20;;;;;;;5.15;2.80;;;;;;;;;;1738453;82;21028;-67
2022/06/14 13:19:05;;;;;;;3.47;2.72;;;;;;;;;;1724041;82;21469;-67
2022/06/14 13:21:49;;;;;;;3.05;2.27;;;;;;;;;;1732311;82;21040;-67
2022/06/14 13:24:27;;;;;;;2.83;2.10;;;;;;;;;;1730706;82;20981;-67
2022/06/14 13:26:55;;;;;;;3.83;2.33;;;;;;;;;;1743873;82;21013;-67
2022/06/14 13:29:23;;;;;;;3.12;1.98;;;;;;;;;;1744621;82;21005;-67
2022/06/14 13:31:54;;;;;;;5.72;2.02;;;;;;;;;;1740100;82;21033;-67
2022/06/14 13:34:27;;;;;;;2.47;2.00;;;;;;;;;;1711723;82;21563;-66
2022/06/14 13:37:01;;;;;;;3.47;2.02;;;;;;;;;;1724573;82;21547;-67
2022/06/14 13:39:32;;;;;;;2.40;2.05;;;;;;;;;;1714297;82;21050;-68
2022/06/14 13:42:03;;;;;;;3.52;1.95;;;;;;;;;;1715814;82;21100;-68
2022/06/14 13:44:36;;;;;;;2.52;1.70;;;;;;;;;;1735017;82;20993;-68
2022/06/14 13:47:04;;;;;;;3.55;1.85;;;;;;;;;;1719778;82;21027;-67
2022/06/14 13:49:31;;;;;;;3.67;2.10;;;;;;;;;;1723037;82;21065;-66
2022/06/14 13:52:00;;;;;;;5.83;2.10;;;;;;;;;;1705032;82;21064;-67
2022/06/14 13:54:28;;;;;;;3.35;1.75;;;;;;;;;;1735802;82;21017;-67
2022/06/14 13:56:56;;;;;;;3.87;2.00;;;;;;;;;;1727706;81;21068;-68
2022/06/14 13:59:26;;;;;;;3.05;1.90;;;;;;;;;;1725770;82;21040;-69
2022/06/14 14:01:57;;;;;;;5.78;1.90;;;;;;;;;;1730549;81;22297;-68
2022/06/14 14:04:25;;;;;;;3.35;1.90;;;;;;;;;;1729725;82;21715;-68
2022/06/14 14:07:10;;;;;;;6.55;2.60;;;;;;;;;;1730295;82;21045;-69
2022/06/14 14:09:39;;;;;;;2.62;2.12;;;;;;;;;;1707998;82;21029;-68
2022/06/14 14:12:08;;;;;;;3.50;1.90;;;;;;;;;;1733549;82;21018;-70
2022/06/14 14:14:36;;;;;;;5.33;2.10;;;;;;;;;;1737711;82;21069;-68
2022/06/14 14:17:06;;;;;;;3.55;2.20;;;;;;;;;;1723563;82;21028;-68
2022/06/14 14:19:51;;;;;;;5.33;2.20;;;;;;;;;;1724764;82;21024;-69
2022/06/14 14:22:18;;;;;;;4.33;2.20;;;;;;;;;;1716792;82;21021;-69
2022/06/14 14:24:46;;;;;;;2.42;2.00;;;;;;;;;;1714179;82;21025;-69
2022/06/14 14:27:26;;;;;;;2.77;2.27;;;;;;;;;;1733948;82;22169;-68
2022/06/14 14:29:56;;;;;;;3.58;2.20;;;;;;;;;;1725862;82;21535;-68
2022/06/14 14:32:24;;;;;;;3.65;2.10;;;;;;;;;;1738327;82;20997;-68
2022/06/14 14:34:51;;;;;;;6.00;2.35;;;;;;;;;;1715333;82;21556;-67
2022/06/14 14:37:19;;;;;;;2.72;1.98;;;;;;;;;;1737204;82;21052;-69
2022/06/14 14:39:47;;;;;;;2.95;2.00;;;;;;;;;;1737083;82;21057;-67
2022/06/14 14:42:19;;;;;;;3.25;2.05;;;;;;;;;;1707564;82;21069;-67
2022/06/14 14:44:46;;;;;;;4.17;2.10;;;;;;;;;;1717258;82;21047;-66
2022/06/14 14:47:14;;;;;;;2.95;1.95;;;;;;;;;;1725722;82;21017;-67
2022/06/14 14:49:58;;;;;;;3.80;2.02;;;;;;;;;;1729892;82;21002;-64
2022/06/14 14:52:26;;;;;;;4.05;1.87;;;;;;;;;;1730903;82;21530;-67
2022/06/14 14:55:07;;;;;;;2.87;1.80;;;;;;;;;;1730256;82;21077;-67
2022/06/14 14:57:35;;;;;;;5.45;1.92;;;;;;;;;;1714612;82;21617;-67
2022/06/14 15:00:15;;;;;;;3.45;1.50;;;;;;;;;;1680040;81;21100;-66
2022/06/14 15:05:45;;;;;;;3.33;1.70;;;;;;;;;;1737482;82;21057;-66
2022/06/14 15:08:32;;;;;;;2.72;1.50;;;;;;;;;;1752510;81;21563;-66
2022/06/14 15:11:01;;;;;;;3.55;1.80;;;;;;;;;;1734727;81;21048;-66
2022/06/14 15:13:31;;;;;;;2.45;1.87;;;;;;;;;;1688629;84;21106;-66
2022/06/14 15:15:59;;;;;;;2.45;2.05;;;;;;;;;;1685653;84;21127;-65
2022/06/14 15:21:18;;;;;;;3.33;1.98;;;;;;;;;;1698346;84;21033;-65
2022/06/14 15:23:55;;;;;;;4.25;1.82;;;;;;;;;;1695171;84;21005;-65
2022/06/14 15:26:22;;;;;;;4.83;1.67;;;;;;;;;;1692034;84;21061;-66
2022/06/14 15:28:49;;;;;;;3.30;1.95;;;;;;;;;;1678887;84;21069;-66
2022/06/14 15:31:27;;;;;;;4.60;2.00;;;;;;;;;;1687781;84;21054;-66
2022/06/14 15:33:54;;;;;;;3.47;1.90;;;;;;;;;;1684518;84;21071;-66
2022/06/14 15:36:27;;;;;;;3.22;2.37;;;;;;;;;;1691541;84;21073;-67